Terminal Aerodrome Forecast
Issued by NWS Cleveland, OH

Home | Current Version | Previous Version | Text Only | Print | Product List | Glossary Off
Versions: 1 2 3 4 5 6 7 8 9 10 11 12 13 14 15 16 17 18 19 20 21

000
FTUS41 KCLE 260700 AAA
TAFCAK
TAF AMD
KCAK 260711Z 2607/2706 23005KT 4SM BR SCT035 BKN250
     FM260900 VRB04KT 3SM BR SCT025 OVC045
     FM261100 01005KT 5SM -RA BR OVC025
     FM261300 36008KT 1SM -RA BR OVC008
     FM261600 32008KT 3SM -RA BR OVC012
     FM262200 30008KT P6SM OVC025
     FM270300 28007KT P6SM OVC035=

USA.gov is the U.S. government's official web portal to all federal, state and local government web resources and services.